This is the latest recevied weather packets stored in our database for station/object KN6WGU. If no packets are shown the sender has not sent any weather packets the latest 1 day(s).
| Time | Temp. | Humidity | Pressure | Rain* | Wind** | Luminosity | Snow |
|---|---|---|---|---|---|---|---|
| 1836274778 | 18.89° C | 83% | 1013.7 hPa | 0 mm | 0.45 m/s, 108° | 0 W/m² | - |
| 1836274476 | 18.33° C | 86% | 1013.6 hPa | 0 mm | 0 m/s | 0 W/m² | - |
| 1836274330 | 18.89° C | 82% | 1013.7 hPa | 0 mm | 0 m/s | 0 W/m² | - |
| 1836274175 | 18.33° C | 88% | 1013.6 hPa | 0 mm | 0 m/s | 0 W/m² | - |
| 1836273874 | 18.33° C | 89% | 1013.5 hPa | 0 mm | 0 m/s | 0 W/m² | - |
| 1778036998 | 9.44° C | 99% | 1002.7 hPa | 3.05 mm | 0 m/s | 0 W/m² | - |
| 1778036696 | 9.44° C | 99% | 1002.7 hPa | 3.05 mm | 0 m/s | 0 W/m² | - |
| 1778036393 | 9.44° C | 99% | 1002.8 hPa | 3.05 mm | 0 m/s | 0 W/m² | - |
| 1778036089 | 9.44° C | 99% | 1003.1 hPa | 3.05 mm | 0 m/s | 0 W/m² | - |
| 1778035786 | 9.44° C | 99% | 1002.8 hPa | 3.05 mm | 0 m/s | 0 W/m² | - |
| 1778035483 | 9.44° C | 99% | 1002.7 hPa | 3.05 mm | 0 m/s | 0 W/m² | - |
| 1778035178 | 9.44° C | 99% | 1002.8 hPa | 3.05 mm | 0 m/s | 0 W/m² | - |
| 1778034876 | 9.44° C | 99% | 1002.9 hPa | 4.83 mm | 0 m/s | 0 W/m² | - |
| 1778034572 | 9.44° C | 99% | 1002.8 hPa | 6.6 mm | 0 m/s | 0 W/m² | - |
| 1778034270 | 9.44° C | 99% | 1002.7 hPa | 7.87 mm | 0 m/s | 0 W/m² | - |
| 1778033968 | 9.44° C | 99% | 1002.6 hPa | 6.1 mm | 0 m/s | 0 W/m² | - |
| 1778033665 | 9.44° C | 99% | 1002.5 hPa | 4.32 mm | 0 m/s | 0 W/m² | - |
| 1778033362 | 9.44° C | 99% | 1002.3 hPa | 4.83 mm | 0 m/s | 0 W/m² | - |
| 1778033060 | 9.44° C | 99% | 1002.3 hPa | 3.05 mm | 0 m/s | 0 W/m² | - |
| 1778032756 | 9.44° C | 99% | 1002.5 hPa | 3.05 mm | 0 m/s | 0 W/m² | - |
| 1778032454 | 9.44° C | 99% | 1002.2 hPa | 3.56 mm | 0 m/s | 0 W/m² | - |
| 1778032151 | 9.44° C | 99% | 1002.1 hPa | 1.78 mm | 0 m/s | 0 W/m² | - |
| 1778031848 | 9.44° C | 99% | 1002.2 hPa | 0 mm | 0 m/s | 0 W/m² | - |
| 1778031544 | 9.44° C | 99% | 1002.2 hPa | 0 mm | 0 m/s | 0 W/m² | - |
| 1778031243 | 9.44° C | 99% | 1001.8 hPa | 1.27 mm | 0 m/s | 0 W/m² | - |
* Rain latest hour (hover to see other rain measurements)
** Current wind speed in m/s (hover to see current wind gust speed)